Time;durP1;ratioP1;P1;durP2;ratioP2;P2;SDS_P1;SDS_P2;PMS_P1;PMS_P2;Temp;Humidity;BMP_temperature;BMP_pressure;BME280_temperature;BME280_humidity;BME280_pressure;Samples;Min_cycle;Max_cycle;Signal;HPM_P1;HPM_P2
2022/01/23 07:07:53;;;;;;;6.80;4.10;;;;;;;;;;6318445;22;20066;-83
2022/01/23 07:10:21;;;;;;;6.45;5.13;;;;;;;;;;6343400;22;20010;-83
2022/01/23 07:12:46;;;;;;;9.13;5.60;;;;;;;;;;6343333;22;20006;-82
2022/01/23 07:15:12;;;;;;;8.82;5.70;;;;;;;;;;6343504;22;20090;-82
2022/01/23 07:17:40;;;;;;;9.52;5.10;;;;;;;;;;6370809;22;20013;-82
2022/01/23 07:20:06;;;;;;;7.85;3.78;;;;;;;;;;6343412;22;20006;-81
2022/01/23 09:36:49;;;;;;;18.75;13.88;;;;;;;;;;6292828;22;20081;-81
2022/01/23 09:39:16;;;;;;;18.13;11.70;;;;;;;;;;6276371;22;20047;-83
2022/01/23 09:41:45;;;;;;;18.45;11.25;;;;;;;;;;6277752;22;20096;-83
2022/01/23 09:44:13;;;;;;;13.98;10.20;;;;;;;;;;6276390;22;20027;-82
2022/01/23 09:46:42;;;;;;;14.48;9.90;;;;;;;;;;6278304;22;20065;-83
2022/01/23 09:49:09;;;;;;;14.35;9.93;;;;;;;;;;6251419;22;20465;-83
2022/01/23 09:51:39;;;;;;;10.88;7.15;;;;;;;;;;6278431;22;19996;-83
2022/01/23 09:54:04;;;;;;;10.05;7.07;;;;;;;;;;6278097;22;19999;-83
2022/01/23 09:56:33;;;;;;;8.38;6.25;;;;;;;;;;6279366;22;20003;-83
2022/01/23 09:59:00;;;;;;;11.70;6.57;;;;;;;;;;6278369;22;20319;-83
2022/01/23 10:01:25;;;;;;;7.72;5.47;;;;;;;;;;6278372;22;20026;-83
2022/01/23 10:03:51;;;;;;;9.18;7.22;;;;;;;;;;6278175;22;20438;-82
2022/01/23 10:06:17;;;;;;;9.73;6.85;;;;;;;;;;6278419;22;20008;-84
2022/01/23 10:08:43;;;;;;;10.02;7.82;;;;;;;;;;6276582;22;20007;-84
2022/01/23 10:11:10;;;;;;;9.70;6.80;;;;;;;;;;6278155;22;20027;-84
2022/01/23 10:13:36;;;;;;;11.52;7.18;;;;;;;;;;6277942;22;20003;-84
2022/01/23 10:16:03;;;;;;;9.05;7.30;;;;;;;;;;6278602;22;20007;-84
2022/01/23 10:18:28;;;;;;;9.45;7.68;;;;;;;;;;6278121;22;20008;-83
2022/01/23 10:20:55;;;;;;;9.88;7.82;;;;;;;;;;6278054;22;20441;-84
2022/01/23 10:23:21;;;;;;;8.35;7.03;;;;;;;;;;6278181;22;20488;-84
2022/01/23 10:25:48;;;;;;;9.05;8.13;;;;;;;;;;6278003;22;20415;-84
2022/01/23 10:28:20;;;;;;;8.45;7.20;;;;;;;;;;6278220;22;20003;-84
2022/01/23 10:30:53;;;;;;;7.32;6.60;;;;;;;;;;6277863;22;20007;-85
2022/01/23 10:33:23;;;;;;;9.20;7.15;;;;;;;;;;6278833;22;20010;-84
2022/01/23 10:35:56;;;;;;;7.90;7.20;;;;;;;;;;6276443;22;20343;-83
2022/01/23 10:38:23;;;;;;;7.90;7.18;;;;;;;;;;6250006;22;20430;-83
2022/01/23 10:40:55;;;;;;;8.50;7.70;;;;;;;;;;6276224;22;20415;-83
2022/01/23 10:48:39;;;;;;;8.75;7.72;;;;;;;;;;6277168;22;20072;-83
2022/01/23 10:51:39;;;;;;;11.63;10.32;;;;;;;;;;6277391;22;20430;-83
2022/01/23 10:54:07;;;;;;;13.35;11.95;;;;;;;;;;6249895;22;20108;-82
2022/01/23 10:56:40;;;;;;;13.13;11.63;;;;;;;;;;6277923;22;20023;-82
2022/01/23 10:59:09;;;;;;;12.93;10.43;;;;;;;;;;6277382;22;20121;-82
2022/01/23 11:01:36;;;;;;;15.02;12.02;;;;;;;;;;6277565;22;20004;-82
2022/01/23 11:04:04;;;;;;;16.77;14.25;;;;;;;;;;6277248;22;20078;-83
2022/01/23 11:06:30;;;;;;;14.35;12.75;;;;;;;;;;6277503;22;20003;-83
2022/01/23 11:09:09;;;;;;;16.67;14.07;;;;;;;;;;6250103;22;20095;-83
2022/01/23 11:11:45;;;;;;;15.65;13.80;;;;;;;;;;6277400;22;19999;-82
2022/01/23 11:19:46;;;;;;;18.48;15.05;;;;;;;;;;6277456;22;20014;-82
2022/01/23 11:22:17;;;;;;;21.40;17.52;;;;;;;;;;6277204;22;20433;-82
2022/01/23 11:24:45;;;;;;;22.70;17.10;;;;;;;;;;6277183;22;20493;-82
2022/01/23 11:27:17;;;;;;;22.92;19.63;;;;;;;;;;6277483;22;20000;-83
2022/01/23 11:30:04;;;;;;;21.05;17.30;;;;;;;;;;6277096;22;20422;-83
2022/01/23 11:32:36;;;;;;;27.08;20.83;;;;;;;;;;6276576;22;20321;-84
2022/01/23 11:35:07;;;;;;;26.92;21.05;;;;;;;;;;6276932;22;20042;-82
2022/01/23 11:37:34;;;;;;;30.48;23.50;;;;;;;;;;6249852;22;20015;-83
2022/01/23 11:40:06;;;;;;;32.75;24.05;;;;;;;;;;6277148;22;20010;-82
2022/01/23 11:51:18;;;;;;;33.70;23.60;;;;;;;;;;6277155;22;20487;-85
2022/01/23 11:53:51;;;;;;;29.42;20.98;;;;;;;;;;6276644;22;20004;-85
2022/01/23 11:56:30;;;;;;;38.85;27.73;;;;;;;;;;6277067;22;20004;-86
2022/01/23 11:59:35;;;;;;;39.13;26.17;;;;;;;;;;6275595;22;20008;-83
2022/01/23 12:02:14;;;;;;;26.83;19.70;;;;;;;;;;6276796;22;20004;-84
2022/01/23 12:04:42;;;;;;;36.03;25.50;;;;;;;;;;6276807;22;20038;-84
2022/01/23 12:07:17;;;;;;;38.83;27.88;;;;;;;;;;6275317;22;20064;-84
2022/01/23 12:10:04;;;;;;;35.40;25.92;;;;;;;;;;6277074;22;20330;-83
2022/01/23 12:18:29;;;;;;;47.40;33.07;;;;;;;;;;6276897;22;20015;-84
2022/01/23 12:20:56;;;;;;;40.78;28.88;;;;;;;;;;6275679;22;20076;-85
2022/01/23 12:23:22;;;;;;;44.58;30.85;;;;;;;;;;6276892;22;20068;-82
2022/01/23 12:25:51;;;;;;;40.85;29.30;;;;;;;;;;6276719;22;20493;-82
2022/01/23 12:28:28;;;;;;;41.40;28.35;;;;;;;;;;6276708;22;20004;-84
2022/01/23 12:31:18;;;;;;;46.85;30.92;;;;;;;;;;6276629;22;20010;-83
2022/01/23 12:33:52;;;;;;;40.33;27.52;;;;;;;;;;6276806;22;20000;-82
2022/01/23 12:36:21;;;;;;;41.63;29.05;;;;;;;;;;6276969;22;20015;-81
2022/01/23 12:39:15;;;;;;;41.87;27.50;;;;;;;;;;6276351;22;20019;-82
2022/01/23 12:41:52;;;;;;;39.55;25.85;;;;;;;;;;6261355;22;20406;-82
2022/01/23 12:44:23;;;;;;;42.47;26.65;;;;;;;;;;6276735;22;20014;-82
2022/01/23 12:46:53;;;;;;;37.72;24.85;;;;;;;;;;6276818;22;20027;-82
2022/01/23 12:49:28;;;;;;;35.67;24.23;;;;;;;;;;6275042;22;20016;-82
2022/01/23 12:51:56;;;;;;;35.25;24.25;;;;;;;;;;6276597;22;20477;-83
2022/01/23 12:54:26;;;;;;;31.17;21.92;;;;;;;;;;6275006;22;20058;-82
2022/01/23 12:56:52;;;;;;;34.58;22.38;;;;;;;;;;6276963;22;20074;-82
2022/01/23 12:59:32;;;;;;;36.45;25.15;;;;;;;;;;6276899;22;20008;-84
2022/01/23 13:02:08;;;;;;;38.13;23.85;;;;;;;;;;6276570;22;20011;-83
2022/01/23 13:04:37;;;;;;;38.80;25.65;;;;;;;;;;6276289;22;20134;-81
2022/01/23 13:07:10;;;;;;;38.88;24.58;;;;;;;;;;6276611;22;20457;-82
2022/01/23 13:09:56;;;;;;;36.85;22.17;;;;;;;;;;6276709;22;20008;-81
2022/01/23 13:33:00;;;;;;;28.13;18.67;;;;;;;;;;6245112;23;20012;-82
2022/01/23 13:35:18;;;;;;;28.00;18.88;;;;;;;;;;6244123;23;20001;-82
2022/01/23 13:37:47;;;;;;;28.58;18.00;;;;;;;;;;6244956;23;20031;-82
2022/01/23 13:40:24;;;;;;;30.60;18.48;;;;;;;;;;6245350;23;20004;-82
2022/01/23 13:59:19;;;;;;;29.38;17.02;;;;;;;;;;6244571;23;20014;-82
2022/01/23 14:01:52;;;;;;;;;;;;;;;;;;6245363;22;20004;-82
2022/01/23 14:04:19;;;;;;;27.45;16.88;;;;;;;;;;6277613;22;19945;-82
2022/01/23 14:06:49;;;;;;;28.05;17.13;;;;;;;;;;6278011;22;20014;-82
2022/01/23 14:09:16;;;;;;;32.33;19.08;;;;;;;;;;6278141;22;20031;-86
2022/01/23 14:11:43;;;;;;;31.98;18.55;;;;;;;;;;6278175;22;20003;-86
2022/01/23 14:14:28;;;;;;;66.78;32.97;;;;;;;;;;6278143;22;20422;-86
2022/01/23 14:16:55;;;;;;;29.60;18.20;;;;;;;;;;6277363;22;20011;-85
2022/01/23 14:19:29;;;;;;;27.63;18.13;;;;;;;;;;6277861;22;20007;-91
2022/01/23 14:21:59;;;;;;;28.70;17.40;;;;;;;;;;6278533;22;20373;-89
2022/01/23 14:24:36;;;;;;;26.27;16.70;;;;;;;;;;6278717;22;20006;-89
2022/01/23 14:27:13;;;;;;;29.20;18.60;;;;;;;;;;6276949;22;20020;-88
2022/01/23 14:29:51;;;;;;;28.40;17.15;;;;;;;;;;6278091;22;20042;-89
2022/01/23 14:32:44;;;;;;;32.30;17.90;;;;;;;;;;6250983;22;20003;-87
2022/01/23 14:35:13;;;;;;;27.13;18.00;;;;;;;;;;6278332;22;20019;-90
2022/01/23 14:37:44;;;;;;;30.73;17.90;;;;;;;;;;6276339;22;20022;-85
2022/01/23 14:40:25;;;;;;;32.38;16.95;;;;;;;;;;6277879;22;20055;-83
2022/01/23 14:43:08;;;;;;;30.58;18.08;;;;;;;;;;6277513;22;20007;-84
2022/01/23 14:45:44;;;;;;;30.15;17.50;;;;;;;;;;6277913;22;20000;-83
2022/01/23 14:48:11;;;;;;;30.83;17.98;;;;;;;;;;6277608;22;20003;-83
2022/01/23 14:50:40;;;;;;;33.25;19.70;;;;;;;;;;6275960;22;20466;-84
2022/01/23 14:53:08;;;;;;;37.47;20.48;;;;;;;;;;6277562;22;20027;-83
2022/01/23 14:55:34;;;;;;;39.88;21.00;;;;;;;;;;6277991;22;20385;-83
2022/01/23 14:58:01;;;;;;;36.65;19.88;;;;;;;;;;6250541;22;20008;-84
2022/01/23 15:00:29;;;;;;;37.45;19.48;;;;;;;;;;6276934;22;20004;-83
2022/01/23 15:02:56;;;;;;;41.65;21.08;;;;;;;;;;6277436;22;19996;-82
2022/01/23 15:05:22;;;;;;;38.35;22.38;;;;;;;;;;6277316;22;20004;-82
2022/01/23 15:07:47;;;;;;;37.95;19.58;;;;;;;;;;6277699;22;20008;-84
2022/01/23 15:10:13;;;;;;;37.75;20.67;;;;;;;;;;6277458;22;20000;-83
2022/01/23 15:12:38;;;;;;;42.13;21.48;;;;;;;;;;6277737;22;20074;-84
2022/01/23 15:15:06;;;;;;;40.30;21.10;;;;;;;;;;6277722;22;20432;-88
2022/01/23 15:17:32;;;;;;;40.25;21.38;;;;;;;;;;6277857;22;20000;-88
2022/01/23 15:19:57;;;;;;;42.20;21.45;;;;;;;;;;6250790;22;20008;-88
2022/01/23 15:22:23;;;;;;;45.38;24.95;;;;;;;;;;6277870;22;20010;-87
2022/01/23 15:24:49;;;;;;;43.17;21.00;;;;;;;;;;6275979;22;20010;-86
2022/01/23 15:27:16;;;;;;;44.65;21.60;;;;;;;;;;6277588;22;20006;-88
2022/01/23 15:29:42;;;;;;;43.65;22.67;;;;;;;;;;6275636;22;20031;-89
2022/01/23 15:32:08;;;;;;;37.78;20.05;;;;;;;;;;6277624;22;20011;-87
2022/01/23 15:34:35;;;;;;;35.53;18.88;;;;;;;;;;6277716;22;20007;-89
2022/01/23 15:37:02;;;;;;;29.58;17.52;;;;;;;;;;6250274;22;20023;-90
2022/01/23 15:39:29;;;;;;;34.40;18.50;;;;;;;;;;6276917;22;20430;-84
2022/01/23 15:41:56;;;;;;;28.83;16.52;;;;;;;;;;6276904;22;20510;-87
2022/01/23 15:44:22;;;;;;;28.75;16.17;;;;;;;;;;6277304;22;20070;-84
2022/01/23 15:46:49;;;;;;;28.98;15.75;;;;;;;;;;6249849;22;20118;-84
2022/01/23 15:49:15;;;;;;;26.05;14.93;;;;;;;;;;6276987;22;20050;-85
2022/01/23 15:51:41;;;;;;;25.55;14.05;;;;;;;;;;6277421;22;19999;-87
2022/01/23 15:54:06;;;;;;;34.33;17.65;;;;;;;;;;6277230;22;20004;-86
2022/01/23 15:56:32;;;;;;;25.92;16.52;;;;;;;;;;6276760;22;20075;-86
2022/01/23 15:58:57;;;;;;;31.60;16.77;;;;;;;;;;6276911;22;20038;-81
2022/01/23 16:01:23;;;;;;;34.65;18.00;;;;;;;;;;6277211;22;20407;-84
2022/01/23 16:03:48;;;;;;;29.08;16.77;;;;;;;;;;6277411;22;20007;-84
2022/01/23 16:06:14;;;;;;;30.45;16.38;;;;;;;;;;6275970;22;20086;-83
2022/01/23 16:08:40;;;;;;;29.10;16.85;;;;;;;;;;6250069;22;20487;-84
2022/01/23 16:11:06;;;;;;;34.67;18.08;;;;;;;;;;6277231;22;20423;-84
2022/01/23 17:14:29;;;;;;;40.30;19.63;;;;;;;;;;6304070;22;20015;-82
2022/01/23 17:16:54;;;;;;;38.40;19.40;;;;;;;;;;6281808;22;20130;-82
2022/01/23 17:19:20;;;;;;;36.58;19.88;;;;;;;;;;6308498;22;20010;-82
2022/01/23 17:21:45;;;;;;;42.85;20.30;;;;;;;;;;6281922;22;20018;-83
2022/01/23 17:24:11;;;;;;;41.40;20.10;;;;;;;;;;6309358;22;20003;-83
2022/01/23 17:26:36;;;;;;;37.95;20.20;;;;;;;;;;6256116;22;20029;-82
2022/01/23 17:29:02;;;;;;;41.22;21.13;;;;;;;;;;6309343;22;20003;-82
2022/01/23 17:31:27;;;;;;;43.33;20.73;;;;;;;;;;6281758;22;20007;-83
2022/01/23 17:33:53;;;;;;;43.88;22.13;;;;;;;;;;6309154;22;20007;-82
2022/01/23 17:36:18;;;;;;;47.88;23.42;;;;;;;;;;6309201;22;20003;-83
2022/01/23 17:38:44;;;;;;;58.42;28.48;;;;;;;;;;6281726;22;20333;-79
2022/01/23 17:41:12;;;;;;;82.68;38.83;;;;;;;;;;6308894;22;20003;-83
2022/01/23 17:43:37;;;;;;;81.10;37.97;;;;;;;;;;6281711;22;19999;-82
2022/01/23 17:46:05;;;;;;;85.28;39.33;;;;;;;;;;6309331;22;20330;-82
2022/01/23 17:48:46;;;;;;;54.08;27.25;;;;;;;;;;6281452;22;20015;-83
2022/01/23 17:51:15;;;;;;;60.72;28.08;;;;;;;;;;6309642;22;20045;-83
2022/01/23 17:53:43;;;;;;;46.07;22.93;;;;;;;;;;6309409;22;19999;-82
2022/01/23 17:56:09;;;;;;;45.20;21.52;;;;;;;;;;6309074;22;20011;-83
2022/01/23 17:58:35;;;;;;;44.42;22.08;;;;;;;;;;6308980;22;19996;-84
2022/01/23 18:01:01;;;;;;;45.42;22.85;;;;;;;;;;6308677;22;19999;-84
2022/01/23 18:03:28;;;;;;;53.67;27.70;;;;;;;;;;6309060;22;20050;-83
2022/01/23 18:05:58;;;;;;;42.47;20.58;;;;;;;;;;6281342;22;20140;-83
2022/01/23 18:08:24;;;;;;;45.65;22.60;;;;;;;;;;6281184;22;20060;-83
2022/01/23 18:10:50;;;;;;;37.00;19.45;;;;;;;;;;6308723;22;20034;-82
2022/01/23 18:13:21;;;;;;;34.60;18.45;;;;;;;;;;6308998;22;20010;-83
2022/01/23 18:15:48;;;;;;;40.22;20.30;;;;;;;;;;6308409;22;20017;-82
2022/01/23 18:18:14;;;;;;;37.13;19.23;;;;;;;;;;6310334;22;20390;-84
2022/01/23 18:20:40;;;;;;;34.70;18.80;;;;;;;;;;6310869;22;20031;-84
2022/01/23 18:23:05;;;;;;;32.50;17.63;;;;;;;;;;6281751;22;19999;-84
2022/01/23 18:25:33;;;;;;;36.15;18.67;;;;;;;;;;6309639;22;20031;-85
2022/01/23 18:28:01;;;;;;;32.25;16.65;;;;;;;;;;6281409;22;20034;-84
2022/01/23 18:30:27;;;;;;;32.25;17.58;;;;;;;;;;6308653;22;20003;-84
2022/01/23 18:32:54;;;;;;;37.80;18.33;;;;;;;;;;6308855;22;20442;-85
2022/01/23 18:35:20;;;;;;;34.13;18.95;;;;;;;;;;6281465;22;20064;-82
2022/01/23 18:37:46;;;;;;;34.13;18.23;;;;;;;;;;6309267;22;20000;-83
2022/01/23 18:40:14;;;;;;;36.00;19.38;;;;;;;;;;6308469;22;20007;-82
2022/01/23 18:42:39;;;;;;;36.58;17.60;;;;;;;;;;6308500;22;20330;-83
2022/01/23 18:45:05;;;;;;;36.28;19.67;;;;;;;;;;6308662;22;20026;-87
2022/01/23 18:47:31;;;;;;;37.65;19.48;;;;;;;;;;6308443;22;20010;-84
2022/01/23 18:49:57;;;;;;;46.60;23.23;;;;;;;;;;6281289;22;20078;-83
2022/01/23 18:52:23;;;;;;;42.00;21.90;;;;;;;;;;6308364;22;20003;-83
2022/01/23 18:54:55;;;;;;;44.55;20.67;;;;;;;;;;6308517;22;20007;-82
2022/01/23 18:57:35;;;;;;;36.55;20.05;;;;;;;;;;6308572;22;20010;-82
2022/01/23 19:00:08;;;;;;;39.42;20.88;;;;;;;;;;6280993;22;20110;-84
2022/01/23 19:02:45;;;;;;;37.33;19.90;;;;;;;;;;6308384;22;20010;-83
2022/01/23 19:05:16;;;;;;;47.88;23.33;;;;;;;;;;6281225;22;20004;-85
2022/01/23 19:07:50;;;;;;;45.00;24.70;;;;;;;;;;6309111;22;20010;-83
2022/01/23 19:10:23;;;;;;;51.10;28.23;;;;;;;;;;6308888;22;20004;-84
2022/01/23 19:12:48;;;;;;;50.58;27.35;;;;;;;;;;6308595;22;20034;-84
2022/01/23 19:15:15;;;;;;;44.85;26.48;;;;;;;;;;6308010;22;20011;-84
2022/01/23 19:17:41;;;;;;;48.58;26.30;;;;;;;;;;6308668;22;19999;-84
2022/01/23 19:20:07;;;;;;;48.63;27.33;;;;;;;;;;6308486;22;20031;-83
2022/01/23 19:22:32;;;;;;;47.53;26.60;;;;;;;;;;6309088;22;20342;-83
2022/01/23 19:24:58;;;;;;;51.45;27.60;;;;;;;;;;6308982;22;19996;-83
2022/01/23 19:27:30;;;;;;;52.50;28.58;;;;;;;;;;6308634;22;20006;-83
2022/01/23 19:29:58;;;;;;;57.00;27.63;;;;;;;;;;6308305;22;20010;-86
2022/01/23 19:32:26;;;;;;;54.38;26.17;;;;;;;;;;6280695;22;20029;-85
2022/01/23 19:34:52;;;;;;;47.03;25.85;;;;;;;;;;6308365;22;20425;-85
2022/01/23 19:37:17;;;;;;;58.80;31.00;;;;;;;;;;6309159;22;20025;-84
2022/01/23 19:39:43;;;;;;;54.55;28.13;;;;;;;;;;6307968;22;20410;-84
2022/01/23 19:42:18;;;;;;;50.50;26.63;;;;;;;;;;6308181;22;20003;-84
2022/01/23 19:44:49;;;;;;;55.40;29.08;;;;;;;;;;6280351;22;20007;-86
2022/01/23 19:47:21;;;;;;;62.83;34.03;;;;;;;;;;6307691;22;20004;-85
2022/01/23 19:49:46;;;;;;;56.80;29.13;;;;;;;;;;6307850;22;20003;-84
2022/01/23 19:52:17;;;;;;;73.78;38.72;;;;;;;;;;6307802;22;20053;-84
2022/01/23 19:54:42;;;;;;;90.40;44.70;;;;;;;;;;6307977;22;19999;-86
2022/01/23 19:57:10;;;;;;;55.25;28.45;;;;;;;;;;6307560;22;20103;-84
2022/01/23 19:59:36;;;;;;;138.38;54.28;;;;;;;;;;6307813;22;19999;-84
2022/01/23 20:02:07;;;;;;;101.00;42.58;;;;;;;;;;6307664;22;20004;-87
2022/01/23 20:04:33;;;;;;;486.88;174.65;;;;;;;;;;6307744;22;20007;-84
2022/01/23 20:06:59;;;;;;;541.53;187.13;;;;;;;;;;6280458;22;20003;-84
2022/01/23 20:09:24;;;;;;;162.15;52.97;;;;;;;;;;6307546;22;20015;-85
2022/01/23 20:14:34;;;;;;;54.67;25.13;;;;;;;;;;6307649;22;20022;-86
2022/01/23 20:17:00;;;;;;;50.05;25.45;;;;;;;;;;6307654;22;20003;-86
2022/01/23 20:19:25;;;;;;;49.20;25.50;;;;;;;;;;6281389;22;20057;-86
2022/01/23 20:21:55;;;;;;;42.90;23.58;;;;;;;;;;6280443;22;20006;-88
2022/01/23 20:24:23;;;;;;;42.92;23.45;;;;;;;;;;6308188;22;20414;-86
2022/01/23 20:26:49;;;;;;;45.40;21.75;;;;;;;;;;6309903;22;20007;-84
2022/01/23 20:29:14;;;;;;;40.40;20.98;;;;;;;;;;6309521;22;19999;-85
2022/01/23 20:31:43;;;;;;;45.88;24.70;;;;;;;;;;6309245;22;20018;-85
2022/01/23 20:34:12;;;;;;;51.75;26.33;;;;;;;;;;6310157;22;20007;-85
2022/01/23 20:36:38;;;;;;;46.45;25.17;;;;;;;;;;6309985;22;20026;-86
2022/01/23 20:39:03;;;;;;;48.63;24.23;;;;;;;;;;6309586;22;20003;-86
2022/01/23 20:41:32;;;;;;;53.50;27.00;;;;;;;;;;6309318;22;20478;-86
2022/01/23 20:43:59;;;;;;;49.80;25.50;;;;;;;;;;6282110;22;20008;-85
2022/01/23 20:46:25;;;;;;;51.80;25.00;;;;;;;;;;6310203;22;20049;-86
2022/01/23 20:48:51;;;;;;;52.83;25.92;;;;;;;;;;6281962;22;19999;-85
2022/01/23 20:51:24;;;;;;;51.17;23.98;;;;;;;;;;6309258;22;20053;-85
2022/01/23 20:53:50;;;;;;;44.80;24.27;;;;;;;;;;6309824;22;20000;-86
2022/01/23 20:56:19;;;;;;;47.38;23.92;;;;;;;;;;6309761;22;20025;-85
2022/01/23 20:58:45;;;;;;;55.50;25.50;;;;;;;;;;6309862;22;20074;-85
2022/01/23 21:01:14;;;;;;;49.53;24.30;;;;;;;;;;6310091;22;20408;-85
2022/01/23 21:03:48;;;;;;;50.10;23.25;;;;;;;;;;6309819;22;19999;-85
2022/01/23 21:06:19;;;;;;;46.97;24.50;;;;;;;;;;6282644;22;19999;-85
2022/01/23 21:08:45;;;;;;;49.00;24.52;;;;;;;;;;6309577;22;20315;-86
2022/01/23 21:11:11;;;;;;;45.72;23.55;;;;;;;;;;6282258;22;20086;-85
2022/01/23 21:13:52;;;;;;;55.13;26.35;;;;;;;;;;6309754;22;20010;-86
2022/01/23 21:21:46;;;;;;;47.13;21.40;;;;;;;;;;6309548;22;20032;-85
2022/01/23 21:40:29;;;;;;;47.47;22.25;;;;;;;;;;6309425;22;20322;-86
2022/01/23 21:42:54;;;;;;;50.83;24.63;;;;;;;;;;6281929;22;20007;-85
2022/01/23 21:45:20;;;;;;;46.95;24.23;;;;;;;;;;6309493;22;20000;-85
2022/01/23 21:47:45;;;;;;;47.70;23.73;;;;;;;;;;6309167;22;20034;-86
2022/01/23 21:50:11;;;;;;;48.08;23.20;;;;;;;;;;6309332;22;20026;-86
2022/01/23 21:52:36;;;;;;;44.42;21.45;;;;;;;;;;6282005;22;20007;-85
2022/01/23 21:55:02;;;;;;;51.63;24.15;;;;;;;;;;6309221;22;20006;-86
2022/01/23 21:57:27;;;;;;;45.35;23.30;;;;;;;;;;6309350;22;20006;-86
2022/01/23 21:59:53;;;;;;;45.13;21.00;;;;;;;;;;6309319;22;20375;-85
2022/01/23 22:02:18;;;;;;;47.75;23.85;;;;;;;;;;6309163;22;20431;-86
2022/01/23 22:04:44;;;;;;;49.42;22.80;;;;;;;;;;6309432;22;20090;-86
2022/01/23 22:07:09;;;;;;;46.53;23.10;;;;;;;;;;6309378;22;20003;-86
2022/01/23 22:09:51;;;;;;;47.53;22.65;;;;;;;;;;6281203;22;20392;-86
2022/01/23 22:17:35;;;;;;;47.20;22.70;;;;;;;;;;6309273;22;20060;-86
2022/01/23 22:20:08;;;;;;;43.80;22.50;;;;;;;;;;6309144;22;20039;-86
2022/01/23 22:27:53;;;;;;;46.03;21.75;;;;;;;;;;6309024;22;20080;-86
2022/01/23 22:30:18;;;;;;;44.80;22.35;;;;;;;;;;6281420;22;20007;-86
2022/01/23 22:32:44;;;;;;;47.17;23.55;;;;;;;;;;6309070;22;20011;-86
2022/01/23 22:35:09;;;;;;;43.58;22.67;;;;;;;;;;6309190;22;20441;-86
2022/01/23 22:37:37;;;;;;;44.00;21.63;;;;;;;;;;6309072;22;19995;-87
2022/01/23 22:40:04;;;;;;;47.88;22.13;;;;;;;;;;6281720;22;20034;-87
2022/01/23 22:42:30;;;;;;;43.30;21.40;;;;;;;;;;6308646;22;20003;-86
2022/01/23 22:47:24;;;;;;;40.90;21.67;;;;;;;;;;6311535;22;20082;-86
2022/01/23 22:49:50;;;;;;;43.95;21.23;;;;;;;;;;6308632;22;20042;-86
2022/01/23 22:52:15;;;;;;;39.58;20.02;;;;;;;;;;6308748;22;20003;-86
2022/01/23 22:54:42;;;;;;;42.42;20.75;;;;;;;;;;6308772;22;20429;-86
2022/01/23 22:57:08;;;;;;;40.05;20.02;;;;;;;;;;6281158;22;20010;-86
2022/01/23 22:59:33;;;;;;;38.05;19.15;;;;;;;;;;6308830;22;20321;-87
2022/01/23 23:01:59;;;;;;;40.35;19.05;;;;;;;;;;6281412;22;20090;-86
2022/01/23 23:04:25;;;;;;;43.95;21.80;;;;;;;;;;6281346;22;20141;-86
2022/01/23 23:06:51;;;;;;;39.70;19.75;;;;;;;;;;6308512;22;19995;-86
2022/01/23 23:09:16;;;;;;;39.83;20.45;;;;;;;;;;6281140;22;20357;-86
2022/01/23 23:11:42;;;;;;;39.00;19.55;;;;;;;;;;6308576;22;20007;-86
2022/01/23 23:14:08;;;;;;;38.10;19.50;;;;;;;;;;6308397;22;20365;-86
2022/01/23 23:16:36;;;;;;;38.90;19.63;;;;;;;;;;6281125;22;20014;-86
2022/01/23 23:19:04;;;;;;;37.00;20.10;;;;;;;;;;6281058;22;19999;-86
2022/01/23 23:21:45;;;;;;;43.95;21.13;;;;;;;;;;6281045;22;20391;-86
2022/01/23 23:24:16;;;;;;;39.80;19.40;;;;;;;;;;6308363;22;20365;-85
2022/01/23 23:26:45;;;;;;;37.92;20.13;;;;;;;;;;6308450;22;20003;-85
2022/01/23 23:29:10;;;;;;;43.92;21.35;;;;;;;;;;6308485;22;20007;-85
2022/01/23 23:31:36;;;;;;;42.42;20.63;;;;;;;;;;6308280;22;20433;-85
2022/01/23 23:34:03;;;;;;;48.28;20.95;;;;;;;;;;6308373;22;20022;-85
2022/01/23 23:36:28;;;;;;;38.67;20.73;;;;;;;;;;6308149;22;20008;-85
2022/01/23 23:38:54;;;;;;;40.15;20.95;;;;;;;;;;6308420;22;20368;-85
2022/01/23 23:46:32;;;;;;;38.53;19.33;;;;;;;;;;6311183;22;20004;-85
2022/01/23 23:49:20;;;;;;;42.20;19.92;;;;;;;;;;6308427;22;20010;-85
2022/01/23 23:51:46;;;;;;;41.30;19.92;;;;;;;;;;6307530;22;19999;-85
2022/01/23 23:54:12;;;;;;;45.55;22.70;;;;;;;;;;6307573;22;20007;-85
